createdAt,value
2018-06-28T14:37:27.473Z,-40.00
2018-06-28T14:38:27.501Z,-40.00
2018-06-28T14:40:20.390Z,-40.00
2018-06-28T14:41:20.401Z,-40.00
2018-06-28T14:43:13.327Z,-40.00
2018-06-28T14:44:13.317Z,-40.00
2018-06-28T14:46:07.167Z,-40.00
2018-06-28T14:47:07.221Z,-40.00
2018-06-28T14:49:00.414Z,-40.00
2018-06-28T14:50:00.394Z,-40.00
2018-06-28T14:51:53.309Z,27.03
2018-06-28T14:52:53.322Z,27.13
2018-06-28T14:54:46.239Z,27.15
2018-06-28T14:55:46.236Z,27.13
2018-06-28T14:57:39.138Z,27.20
2018-06-28T14:58:39.261Z,27.23
2018-06-28T15:00:32.062Z,27.21
2018-06-28T15:01:32.060Z,27.23
2018-06-28T15:03:24.984Z,27.23
2018-06-28T15:04:24.977Z,27.20
2018-06-28T15:06:19.899Z,27.15
2018-06-28T15:07:19.899Z,27.24
2018-06-28T15:08:19.916Z,27.20
2018-06-28T15:09:19.921Z,27.18
2018-06-28T15:10:19.931Z,27.18
2018-06-28T15:11:19.950Z,27.11
2018-06-28T15:12:19.955Z,27.08
2018-06-28T15:13:19.962Z,27.02
2018-06-28T15:14:19.975Z,27.03
2018-06-28T15:15:20.016Z,27.06
2018-06-28T15:16:19.997Z,27.20
2018-06-28T15:17:20.009Z,27.27
2018-06-28T15:18:20.024Z,27.18
2018-06-28T15:19:20.044Z,27.06
2018-06-28T15:20:20.045Z,26.97
2018-06-28T15:21:20.124Z,26.97
2018-06-28T15:22:20.066Z,26.94
2018-06-28T15:23:20.081Z,26.96
2018-06-28T15:24:20.091Z,26.90
2018-06-28T15:25:20.099Z,27.03
2018-06-28T15:26:20.111Z,26.96
2018-06-28T15:27:20.172Z,26.88
2018-06-28T15:28:20.132Z,26.93
2018-06-28T15:29:20.144Z,26.93
2018-06-28T15:30:20.159Z,27.02
2018-06-28T15:31:20.166Z,26.93
2018-06-28T15:32:20.177Z,26.93
2018-06-28T15:33:20.262Z,26.88
2018-06-28T15:34:20.204Z,26.88
2018-06-28T15:35:20.213Z,26.86
2018-06-28T15:36:20.221Z,26.86
2018-06-28T15:37:20.230Z,26.90
2018-06-28T15:38:20.250Z,26.91
2018-06-28T15:39:20.268Z,26.90
2018-06-28T15:40:20.266Z,26.93
2018-06-28T15:41:20.295Z,26.93
2018-06-28T15:42:20.288Z,26.90
2018-06-28T15:43:20.296Z,26.87
2018-06-28T15:44:20.310Z,26.90
2018-06-28T15:45:20.318Z,26.91
2018-06-28T15:46:20.337Z,26.94
2018-06-28T15:47:20.352Z,26.97
2018-06-28T15:48:20.351Z,26.96
